Decoded Metar for KGEV (JEFFERSON in NC, USA) (IATA:GEV) | Meteo·Mobile Aviation Weather
aviador You're here:

KGEV Decoded Metar

JEFFERSON in NC, USA
Report Time2018-09-19 16:50:00
UTC Time2018-09-19 16:56:50
Flight Rules vfr VFR
Wind010° at 05 kt
W.Decomp.*RWY 10: 0.6 kt HW 5 kt LCW
W.Rank010° ranks 23
Current wind is above 010° avg. (4.3)
Visibility9999 m
Phenomena:N/A
Clouds:Scattered 044 Hf
Expected CloudBase > 3,600 ft AGL from Temp-Dew spread
CeilingNone
Temp25°C (ISA +16)
Dew Point16°C (57% RH)
QNH1021 hPa
Density Alt5,039 ft
Elevation3,179 ft
Report Wrong Elevation
Raw Report
METAR KGEV 191650Z AUTO 01005KT 10SM SCT044 25/16 A3015 RMK AO2 T02470162=

Extra information for KGEV:More info

Metar Taf Metar & Taf Last 4 Metars F.Rules Stats Wind Profile Meteogram Temp Stats Airport Information Weather charts Add Link Nearby VenuesMetar ALERT Operation Metar Decoded Social comments

AIRNAV info for KGEV